Time;durP1;ratioP1;P1;durP2;ratioP2;P2;SDS_P1;SDS_P2;PMS_P1;PMS_P2;Temp;Humidity;BMP_temperature;BMP_pressure;BME280_temperature;BME280_humidity;BME280_pressure;Samples;Min_cycle;Max_cycle;Signal;HPM_P1;HPM_P2
2022/10/09 00:01:05;;;;;;;;;;;13.50;99.90;;;;;;4935430;29;19966;-70
2022/10/09 00:03:32;;;;;;;;;;;13.50;99.90;;;;;;4935184;29;20349;-70
2022/10/09 00:05:59;;;;;;;;;;;13.60;99.90;;;;;;4935218;29;20366;-72
2022/10/09 00:08:26;;;;;;;;;;;13.70;99.90;;;;;;4935437;29;19911;-70
2022/10/09 00:10:53;;;;;;;;;;;13.70;99.90;;;;;;4935198;29;20335;-70
2022/10/09 00:13:19;;;;;;;;;;;13.70;99.90;;;;;;4935073;29;19998;-72
2022/10/09 00:15:46;;;;;;;;;;;13.60;99.90;;;;;;4934877;29;19919;-71
2022/10/09 00:18:15;;;;;;;;;;;13.60;99.90;;;;;;4935100;29;19911;-70
2022/10/09 00:20:42;;;;;;;;;;;13.70;99.90;;;;;;4935393;29;19918;-70
2022/10/09 00:23:13;;;;;;;;;;;13.70;99.90;;;;;;4939026;29;19966;-69
2022/10/09 00:25:49;;;;;;;;;;;13.70;99.90;;;;;;4937847;29;19954;-72
2022/10/09 00:28:16;;;;;;;;;;;13.80;99.90;;;;;;4935242;29;19915;-70
2022/10/09 00:30:43;;;;;;;;;;;13.90;99.90;;;;;;4935012;29;20015;-70
2022/10/09 00:33:09;;;;;;;;;;;14.00;99.90;;;;;;4934914;29;19929;-68
2022/10/09 00:35:39;;;;;;;;;;;14.20;99.90;;;;;;4934787;29;19911;-69
2022/10/09 00:38:06;;;;;;;;;;;14.20;99.90;;;;;;4933645;29;19918;-68
2022/10/09 00:40:33;;;;;;;;;;;14.20;99.90;;;;;;4935101;29;19969;-67
2022/10/09 00:43:00;;;;;;;;;;;14.20;99.90;;;;;;4934011;29;19911;-68
2022/10/09 00:45:27;;;;;;;;;;;14.20;99.90;;;;;;4934281;29;19915;-68
2022/10/09 00:48:00;;;;;;;;;;;14.30;99.90;;;;;;4935043;29;19918;-68
2022/10/09 00:50:27;;;;;;;;;;;14.30;99.90;;;;;;4934898;29;20337;-67
2022/10/09 00:52:55;;;;;;;;;;;14.40;99.90;;;;;;4934640;29;19919;-68
2022/10/09 00:55:23;;;;;;;;;;;14.30;99.90;;;;;;4934365;29;19970;-67
2022/10/09 00:57:50;;;;;;;;;;;14.40;99.90;;;;;;4934938;29;19915;-67
2022/10/09 01:00:17;;;;;;;;;;;14.50;99.90;;;;;;4934644;29;19911;-68
2022/10/09 01:02:43;;;;;;;;;;;14.70;99.90;;;;;;4934641;29;20041;-68
2022/10/09 01:05:11;;;;;;;;;;;14.90;99.90;;;;;;4934035;29;19915;-68
2022/10/09 01:08:12;;;;;;;;;;;15.00;99.90;;;;;;4934761;29;19910;-68
2022/10/09 01:10:49;;;;;;;;;;;14.90;99.90;;;;;;4894510;29;20279;-68
2022/10/09 01:13:23;;;;;;;;;;;14.90;99.90;;;;;;4894339;29;19926;-67
2022/10/09 01:16:10;;;;;;;;;;;15.20;99.90;;;;;;4894218;29;19912;-67
2022/10/09 01:18:48;;;;;;;;;;;15.30;99.90;;;;;;4911009;29;19911;-68
2022/10/09 01:21:20;;;;;;;;;;;15.30;99.90;;;;;;4949169;29;20035;-68
2022/10/09 01:24:07;;;;;;;;;;;15.30;99.90;;;;;;4934245;29;19951;-67
2022/10/09 01:26:52;;;;;;;;;;;15.50;99.90;;;;;;4934270;29;20406;-69
2022/10/09 01:29:19;;;;;;;;;;;15.70;99.90;;;;;;4934271;29;19911;-69
2022/10/09 01:31:48;;;;;;;;;;;15.70;99.90;;;;;;4934418;29;19915;-68
2022/10/09 01:34:15;;;;;;;;;;;15.70;99.90;;;;;;4934267;29;19934;-67
2022/10/09 01:36:43;;;;;;;;;;;15.60;99.90;;;;;;4934644;29;19922;-68
2022/10/09 01:39:16;;;;;;;;;;;15.50;99.90;;;;;;4934319;29;19911;-67
2022/10/09 01:41:42;;;;;;;;;;;15.40;99.90;;;;;;4934798;29;20413;-68
2022/10/09 01:44:19;;;;;;;;;;;15.50;99.90;;;;;;4933008;29;20433;-68
2022/10/09 01:46:46;;;;;;;;;;;15.50;99.90;;;;;;4934449;29;20270;-68
2022/10/09 01:49:35;;;;;;;;;;;15.50;99.90;;;;;;4934432;29;19914;-67
2022/10/09 01:52:10;;;;;;;;;;;15.50;99.90;;;;;;4934092;29;19915;-67
2022/10/09 01:54:39;;;;;;;;;;;15.40;99.90;;;;;;4937049;29;19957;-68
2022/10/09 01:57:07;;;;;;;;;;;15.50;99.90;;;;;;4952202;29;19915;-68
2022/10/09 01:59:36;;;;;;;;;;;15.50;99.90;;;;;;4937599;29;20002;-68
2022/10/09 02:02:05;;;;;;;;;;;15.50;99.90;;;;;;4938065;29;20282;-70
2022/10/09 02:04:32;;;;;;;;;;;15.40;99.90;;;;;;4949918;29;19911;-67
2022/10/09 02:07:00;;;;;;;;;;;15.40;99.90;;;;;;4941194;29;19922;-67
2022/10/09 02:09:27;;;;;;;;;;;15.40;99.90;;;;;;4938433;29;20354;-68
2022/10/09 02:11:56;;;;;;;;;;;15.40;99.90;;;;;;4938276;29;20331;-69
2022/10/09 02:14:24;;;;;;;;;;;15.40;99.90;;;;;;4937367;29;20371;-67
2022/10/09 02:16:57;;;;;;;;;;;15.60;99.90;;;;;;4937461;29;20394;-67
2022/10/09 02:19:31;;;;;;;;;;;15.60;99.90;;;;;;4937361;29;19919;-67
2022/10/09 02:22:15;;;;;;;;;;;15.80;99.90;;;;;;4937164;29;19910;-70
2022/10/09 02:24:42;;;;;;;;;;;15.80;99.90;;;;;;4936689;29;20330;-67
2022/10/09 02:27:10;;;;;;;;;;;15.60;99.90;;;;;;4937230;29;19915;-67
2022/10/09 02:29:44;;;;;;;;;;;15.50;99.90;;;;;;4937342;29;19915;-66
2022/10/09 02:32:11;;;;;;;;;;;15.40;99.90;;;;;;4952722;29;19978;-68
2022/10/09 02:34:38;;;;;;;;;;;15.30;99.90;;;;;;4937552;29;19958;-69
2022/10/09 02:37:05;;;;;;;;;;;15.20;99.90;;;;;;4937883;29;19911;-68
2022/10/09 02:39:32;;;;;;;;;;;15.20;99.90;;;;;;4937894;29;19922;-68
2022/10/09 02:41:59;;;;;;;;;;;15.20;99.90;;;;;;4937801;29;19919;-69
2022/10/09 02:44:26;;;;;;;;;;;15.20;99.90;;;;;;4937672;29;19911;-68
2022/10/09 02:46:52;;;;;;;;;;;15.20;99.90;;;;;;4936971;29;19947;-70
2022/10/09 02:49:19;;;;;;;;;;;15.00;99.90;;;;;;4936542;29;20358;-69
2022/10/09 02:51:46;;;;;;;;;;;15.00;99.90;;;;;;4937003;29;19938;-69
2022/10/09 02:54:13;;;;;;;;;;;15.10;99.90;;;;;;4936568;29;20026;-67
2022/10/09 02:56:42;;;;;;;;;;;15.20;99.90;;;;;;4936700;29;19919;-67
2022/10/09 02:59:09;;;;;;;;;;;15.40;99.90;;;;;;4936442;29;20255;-68
2022/10/09 03:01:36;;;;;;;;;;;15.40;99.90;;;;;;4936587;29;19950;-69
2022/10/09 03:04:03;;;;;;;;;;;15.50;99.90;;;;;;4936017;29;19911;-71
2022/10/09 03:06:30;;;;;;;;;;;15.60;99.90;;;;;;4936110;29;19956;-69
2022/10/09 03:08:57;;;;;;;;;;;15.70;99.90;;;;;;4936771;29;19921;-68
2022/10/09 03:11:24;;;;;;;;;;;15.80;99.90;;;;;;4936312;29;19946;-69
2022/10/09 03:13:51;;;;;;;;;;;15.80;99.90;;;;;;4935897;29;19973;-69
2022/10/09 03:16:19;;;;;;;;;;;15.80;99.90;;;;;;4936609;29;20050;-72
2022/10/09 03:18:46;;;;;;;;;;;15.70;99.90;;;;;;4936928;29;19914;-68
2022/10/09 03:21:14;;;;;;;;;;;15.70;99.90;;;;;;4936129;29;19911;-70
2022/10/09 03:23:41;;;;;;;;;;;15.60;99.90;;;;;;4935868;29;19918;-70
2022/10/09 03:26:09;;;;;;;;;;;15.60;99.90;;;;;;4936347;29;19915;-72
2022/10/09 03:28:39;;;;;;;;;;;15.60;99.90;;;;;;4934731;29;19975;-68
2022/10/09 03:31:06;;;;;;;;;;;15.60;99.90;;;;;;4935798;29;20282;-68
2022/10/09 03:33:36;;;;;;;;;;;15.40;99.90;;;;;;4935606;29;19922;-71
2022/10/09 03:36:03;;;;;;;;;;;15.20;99.90;;;;;;4935988;29;19910;-67
2022/10/09 03:38:30;;;;;;;;;;;15.10;99.90;;;;;;4936080;29;19918;-69
2022/10/09 03:41:00;;;;;;;;;;;15.10;99.90;;;;;;4945283;29;19945;-70
2022/10/09 03:43:30;;;;;;;;;;;15.10;99.90;;;;;;4942140;29;19915;-68
2022/10/09 03:45:57;;;;;;;;;;;15.10;99.90;;;;;;4935964;29;19998;-69
2022/10/09 03:48:24;;;;;;;;;;;15.10;99.90;;;;;;4936174;29;20129;-70
2022/10/09 03:50:50;;;;;;;;;;;15.10;99.90;;;;;;4935932;29;19911;-70
2022/10/09 03:53:17;;;;;;;;;;;15.10;99.90;;;;;;4935320;29;19919;-71
2022/10/09 03:55:45;;;;;;;;;;;15.10;99.90;;;;;;4935864;29;20127;-72
2022/10/09 03:58:12;;;;;;;;;;;15.30;99.90;;;;;;4935864;29;19911;-72
2022/10/09 04:00:39;;;;;;;;;;;15.20;99.90;;;;;;4935468;29;20295;-71
2022/10/09 04:03:06;;;;;;;;;;;15.30;99.90;;;;;;4935431;29;19923;-72
2022/10/09 04:05:34;;;;;;;;;;;15.40;99.90;;;;;;4935224;29;19915;-71
2022/10/09 04:08:00;;;;;;;;;;;15.40;99.90;;;;;;4935519;29;19914;-72
2022/10/09 04:10:31;;;;;;;;;;;15.50;99.90;;;;;;4934857;29;20353;-72
2022/10/09 04:12:57;;;;;;;;;;;15.50;99.90;;;;;;4935565;29;19969;-71
2022/10/09 04:15:24;;;;;;;;;;;15.50;99.90;;;;;;4934997;29;20740;-71
2022/10/09 04:17:51;;;;;;;;;;;15.60;99.90;;;;;;4935641;29;20365;-72
2022/10/09 04:20:19;;;;;;;;;;;15.70;99.90;;;;;;4950185;29;19919;-70
2022/10/09 04:22:46;;;;;;;;;;;15.60;99.90;;;;;;4935516;29;19911;-72
2022/10/09 04:25:13;;;;;;;;;;;15.50;99.90;;;;;;4934916;29;19973;-72
2022/10/09 04:27:40;;;;;;;;;;;15.60;99.90;;;;;;4935165;29;19956;-73
2022/10/09 04:30:07;;;;;;;;;;;15.60;99.90;;;;;;4935006;29;20010;-70
2022/10/09 04:32:33;;;;;;;;;;;15.50;99.90;;;;;;4935116;29;20022;-70
2022/10/09 04:35:00;;;;;;;;;;;15.70;99.90;;;;;;4933235;29;20311;-71
2022/10/09 04:37:27;;;;;;;;;;;15.80;99.90;;;;;;4934980;29;20334;-72
2022/10/09 04:39:53;;;;;;;;;;;15.80;99.90;;;;;;4935279;29;20401;-72
2022/10/09 04:42:20;;;;;;;;;;;15.80;99.90;;;;;;4935116;29;20299;-73
2022/10/09 04:44:46;;;;;;;;;;;15.90;99.90;;;;;;4934583;29;19911;-75
2022/10/09 04:47:13;;;;;;;;;;;15.90;99.90;;;;;;4934745;29;19917;-73
2022/10/09 04:49:40;;;;;;;;;;;15.90;99.90;;;;;;4934790;29;19950;-72
2022/10/09 04:52:06;;;;;;;;;;;15.80;99.90;;;;;;4934603;29;19910;-72
2022/10/09 04:54:33;;;;;;;;;;;15.70;99.90;;;;;;4934339;29;19914;-71
2022/10/09 04:57:00;;;;;;;;;;;15.80;99.90;;;;;;4934842;29;20208;-71
2022/10/09 04:59:26;;;;;;;;;;;15.80;99.90;;;;;;4934525;29;19911;-73
2022/10/09 05:01:53;;;;;;;;;;;15.80;99.90;;;;;;4934502;29;20012;-73
2022/10/09 05:04:20;;;;;;;;;;;15.80;99.90;;;;;;4934313;29;19926;-71
2022/10/09 05:06:46;;;;;;;;;;;15.80;99.90;;;;;;4934648;29;20007;-74
2022/10/09 05:09:13;;;;;;;;;;;15.70;99.90;;;;;;4934360;29;19914;-74
2022/10/09 05:11:39;;;;;;;;;;;15.70;99.90;;;;;;4934744;29;19915;-69
2022/10/09 05:14:06;;;;;;;;;;;15.80;99.90;;;;;;4934080;29;19919;-73
2022/10/09 05:16:33;;;;;;;;;;;15.80;99.90;;;;;;4934607;29;19911;-74
2022/10/09 05:18:59;;;;;;;;;;;15.60;99.90;;;;;;4934672;29;19919;-71
2022/10/09 05:21:27;;;;;;;;;;;15.70;99.90;;;;;;4934325;29;19918;-73
2022/10/09 05:23:54;;;;;;;;;;;15.50;99.90;;;;;;4934242;29;19985;-73
2022/10/09 05:26:24;;;;;;;;;;;15.40;99.90;;;;;;4934746;29;19924;-74
2022/10/09 05:28:51;;;;;;;;;;;15.40;99.90;;;;;;4936245;29;20001;-71
2022/10/09 05:31:22;;;;;;;;;;;15.40;99.90;;;;;;4938078;29;19911;-72
2022/10/09 05:33:49;;;;;;;;;;;15.40;99.90;;;;;;4937645;29;19919;-73
2022/10/09 05:36:16;;;;;;;;;;;15.20;99.90;;;;;;4938003;29;19954;-74
2022/10/09 05:38:43;;;;;;;;;;;15.20;99.90;;;;;;4937912;29;19911;-70
2022/10/09 05:41:11;;;;;;;;;;;15.20;99.90;;;;;;4937755;29;19919;-71
2022/10/09 05:43:39;;;;;;;;;;;15.20;99.90;;;;;;4937425;29;20021;-71
2022/10/09 05:46:08;;;;;;;;;;;15.20;99.90;;;;;;4937718;29;20355;-72
2022/10/09 05:48:35;;;;;;;;;;;15.20;99.90;;;;;;4937771;29;20299;-69
2022/10/09 05:51:10;;;;;;;;;;;15.20;99.90;;;;;;4937741;29;19911;-68
2022/10/09 05:53:37;;;;;;;;;;;15.30;99.90;;;;;;4937249;29;20049;-68
2022/10/09 05:56:21;;;;;;;;;;;15.20;99.90;;;;;;4937694;29;19917;-72
2022/10/09 05:58:52;;;;;;;;;;;15.30;99.90;;;;;;4937407;29;20005;-72
2022/10/09 06:01:19;;;;;;;;;;;15.20;99.90;;;;;;4937201;29;20377;-70
2022/10/09 06:03:50;;;;;;;;;;;15.20;99.90;;;;;;4937042;29;19915;-71
2022/10/09 06:06:17;;;;;;;;;;;15.20;99.90;;;;;;4937438;29;20002;-72
2022/10/09 06:08:44;;;;;;;;;;;15.20;99.90;;;;;;4937502;29;19925;-71
2022/10/09 06:11:14;;;;;;;;;;;15.10;99.90;;;;;;4937184;29;20346;-70
2022/10/09 06:13:41;;;;;;;;;;;15.20;99.90;;;;;;4936728;29;19922;-73
2022/10/09 06:16:10;;;;;;;;;;;15.20;99.90;;;;;;4937246;29;19915;-68
2022/10/09 06:18:37;;;;;;;;;;;15.30;99.90;;;;;;4937158;29;20322;-73
2022/10/09 06:21:04;;;;;;;;;;;15.30;99.90;;;;;;4937153;29;19961;-72
2022/10/09 06:23:31;;;;;;;;;;;15.40;99.90;;;;;;4936844;29;19911;-72
2022/10/09 06:25:59;;;;;;;;;;;15.40;99.90;;;;;;4937175;29;19959;-73
2022/10/09 06:28:29;;;;;;;;;;;15.40;99.90;;;;;;4937118;29;19911;-73
2022/10/09 06:31:15;;;;;;;;;;;15.30;99.90;;;;;;4937360;29;19910;-70
2022/10/09 06:33:43;;;;;;;;;;;15.40;99.90;;;;;;4937353;29;20286;-72
2022/10/09 06:36:10;;;;;;;;;;;15.40;99.90;;;;;;4937591;29;19960;-73
2022/10/09 06:38:38;;;;;;;;;;;15.30;99.90;;;;;;4937658;29;19918;-73
2022/10/09 06:41:05;;;;;;;;;;;15.20;99.90;;;;;;4937108;29;20025;-72
2022/10/09 06:43:32;;;;;;;;;;;15.20;99.90;;;;;;4937573;29;19912;-73
2022/10/09 06:46:03;;;;;;;;;;;15.20;99.90;;;;;;4937342;29;19919;-71
2022/10/09 06:48:30;;;;;;;;;;;15.10;99.90;;;;;;4935607;29;19919;-71
2022/10/09 06:51:14;;;;;;;;;;;15.10;99.90;;;;;;4935774;29;19950;-73
2022/10/09 06:53:45;;;;;;;;;;;15.10;99.90;;;;;;4935269;29;19919;-69
2022/10/09 06:56:16;;;;;;;;;;;15.00;99.90;;;;;;4934825;29;19926;-73
2022/10/09 06:58:42;;;;;;;;;;;14.90;99.90;;;;;;4949583;29;20381;-71
2022/10/09 07:01:11;;;;;;;;;;;14.90;99.90;;;;;;4934521;29;19971;-69
2022/10/09 07:03:39;;;;;;;;;;;14.80;99.90;;;;;;4934660;29;19926;-69
2022/10/09 07:06:05;;;;;;;;;;;14.70;99.90;;;;;;4934992;29;20665;-72
2022/10/09 07:08:35;;;;;;;;;;;14.70;99.90;;;;;;4934892;29;19911;-70
2022/10/09 07:11:12;;;;;;;;;;;14.70;99.90;;;;;;4935081;29;19960;-69
2022/10/09 07:13:39;;;;;;;;;;;14.60;99.90;;;;;;4934549;29;19966;-71
2022/10/09 07:16:07;;;;;;;;;;;14.60;99.90;;;;;;4934477;29;20303;-71
2022/10/09 07:18:34;;;;;;;;;;;14.50;99.90;;;;;;4934439;29;19986;-72
2022/10/09 07:21:01;;;;;;;;;;;14.50;99.90;;;;;;4939424;29;19962;-73
2022/10/09 07:23:29;;;;;;;;;;;14.50;99.90;;;;;;4950166;29;19911;-71
2022/10/09 07:25:57;;;;;;;;;;;14.50;99.90;;;;;;4936485;29;19910;-71
2022/10/09 07:28:25;;;;;;;;;;;14.50;99.90;;;;;;4934784;29;20006;-72
2022/10/09 07:30:51;;;;;;;;;;;14.40;99.90;;;;;;4935254;29;19922;-71
2022/10/09 07:33:18;;;;;;;;;;;14.50;99.90;;;;;;4934372;29;20401;-72
2022/10/09 07:35:55;;;;;;;;;;;14.40;99.90;;;;;;4934903;29;20366;-72
2022/10/09 07:38:23;;;;;;;;;;;14.50;99.90;;;;;;4934360;29;20390;-73
2022/10/09 07:40:50;;;;;;;;;;;14.50;99.90;;;;;;4948324;29;20018;-74
2022/10/09 07:43:17;;;;;;;;;;;14.40;99.90;;;;;;4933534;29;20593;-73
2022/10/09 07:45:44;;;;;;;;;;;14.40;99.90;;;;;;4934202;29;20426;-69
2022/10/09 07:48:10;;;;;;;;;;;14.40;99.90;;;;;;4934098;29;20390;-72
2022/10/09 07:50:37;;;;;;;;;;;14.30;99.90;;;;;;4933641;29;19914;-72
2022/10/09 07:53:04;;;;;;;;;;;14.30;99.90;;;;;;4933687;29;19929;-74
2022/10/09 07:55:30;;;;;;;;;;;14.30;99.90;;;;;;4933889;29;20302;-72
2022/10/09 07:57:57;;;;;;;;;;;14.20;99.90;;;;;;4934146;29;20367;-74
2022/10/09 08:00:24;;;;;;;;;;;14.20;99.90;;;;;;4934059;29;19917;-71
2022/10/09 08:02:50;;;;;;;;;;;14.20;99.90;;;;;;4933441;29;19923;-71
2022/10/09 08:05:17;;;;;;;;;;;14.20;99.90;;;;;;4933215;29;20017;-72
2022/10/09 08:07:44;;;;;;;;;;;14.20;99.90;;;;;;4935849;29;19997;-72
2022/10/09 08:10:10;;;;;;;;;;;14.10;99.90;;;;;;4935948;29;19918;-73
2022/10/09 08:12:37;;;;;;;;;;;14.10;99.90;;;;;;4935785;29;19915;-71
2022/10/09 08:15:04;;;;;;;;;;;14.10;99.90;;;;;;4935621;29;19919;-72
2022/10/09 08:17:30;;;;;;;;;;;14.10;99.90;;;;;;4935906;29;19918;-72
2022/10/09 08:19:57;;;;;;;;;;;14.10;99.90;;;;;;4936582;29;20302;-71
2022/10/09 08:22:24;;;;;;;;;;;14.10;99.90;;;;;;4937915;29;20001;-71
2022/10/09 08:24:50;;;;;;;;;;;14.20;99.90;;;;;;4936661;29;19910;-71
2022/10/09 08:27:17;;;;;;;;;;;14.20;99.90;;;;;;4929917;29;19962;-72
2022/10/09 08:29:44;;;;;;;;;;;14.20;99.90;;;;;;4929578;29;20322;-68
2022/10/09 08:32:10;;;;;;;;;;;14.20;99.90;;;;;;4930454;29;20306;-72
2022/10/09 08:34:37;;;;;;;;;;;14.20;99.90;;;;;;4929722;29;20393;-73
2022/10/09 08:37:03;;;;;;;;;;;14.30;99.90;;;;;;4929029;29;19923;-72
2022/10/09 08:39:31;;;;;;;;;;;14.30;99.90;;;;;;4932165;29;19915;-72
2022/10/09 08:42:02;;;;;;;;;;;14.30;99.90;;;;;;4939117;29;19918;-72
2022/10/09 08:44:32;;;;;;;;;;;14.30;99.90;;;;;;4930194;29;19992;-72
2022/10/09 08:47:11;;;;;;;;;;;14.30;99.90;;;;;;4928972;29;19974;-73
2022/10/09 08:49:56;;;;;;;;;;;14.40;99.90;;;;;;4928783;29;19937;-71
2022/10/09 08:52:38;;;;;;;;;;;14.40;99.90;;;;;;4928493;29;19922;-72
2022/10/09 08:55:14;;;;;;;;;;;14.30;99.90;;;;;;4933467;29;19921;-72
2022/10/09 08:57:41;;;;;;;;;;;14.30;99.90;;;;;;4939126;29;19963;-73
2022/10/09 09:00:15;;;;;;;;;;;14.30;99.90;;;;;;4928945;29;19919;-71
2022/10/09 09:02:59;;;;;;;;;;;14.30;99.90;;;;;;4926506;29;19927;-71
2022/10/09 09:05:29;;;;;;;;;;;14.30;99.90;;;;;;4930973;29;19915;-71
2022/10/09 09:08:12;;;;;;;;;;;14.30;99.90;;;;;;4930687;29;19915;-69
2022/10/09 09:10:50;;;;;;;;;;;14.30;99.90;;;;;;4930351;29;19936;-68
2022/10/09 09:13:29;;;;;;;;;;;14.30;99.90;;;;;;4930076;29;19926;-71
2022/10/09 09:16:15;;;;;;;;;;;14.40;99.90;;;;;;4930635;29;20001;-68
2022/10/09 09:19:00;;;;;;;;;;;14.40;99.90;;;;;;4923509;29;19914;-71
2022/10/09 09:21:27;;;;;;;;;;;14.40;99.90;;;;;;4930567;29;19922;-72
2022/10/09 09:23:54;;;;;;;;;;;14.30;99.90;;;;;;4929802;29;19922;-72
2022/10/09 09:26:22;;;;;;;;;;;14.30;99.90;;;;;;4930035;29;20009;-69
2022/10/09 09:28:52;;;;;;;;;;;14.30;99.90;;;;;;4930398;29;19923;-71
2022/10/09 09:31:22;;;;;;;;;;;14.30;99.90;;;;;;4930191;29;19922;-71
2022/10/09 09:33:57;;;;;;;;;;;14.20;99.90;;;;;;4929827;29;19969;-70
2022/10/09 09:36:43;;;;;;;;;;;14.20;99.90;;;;;;4929888;29;19923;-72
2022/10/09 09:39:13;;;;;;;;;;;14.10;99.90;;;;;;4930362;29;20290;-72
2022/10/09 09:41:42;;;;;;;;;;;14.10;99.90;;;;;;4929900;29;19954;-68
2022/10/09 09:44:10;;;;;;;;;;;14.00;99.90;;;;;;4929477;29;19923;-68
2022/10/09 09:46:37;;;;;;;;;;;14.10;99.90;;;;;;4929969;29;19914;-70
2022/10/09 09:49:14;;;;;;;;;;;14.00;99.90;;;;;;4929253;29;19915;-72
2022/10/09 09:51:42;;;;;;;;;;;14.00;99.90;;;;;;4930116;29;19954;-71
2022/10/09 09:54:17;;;;;;;;;;;14.00;99.90;;;;;;4929590;29;19934;-73
2022/10/09 09:56:44;;;;;;;;;;;14.00;99.90;;;;;;4929779;29;19914;-70
2022/10/09 09:59:29;;;;;;;;;;;14.00;99.90;;;;;;4929544;29;19923;-70
2022/10/09 10:02:00;;;;;;;;;;;14.00;99.90;;;;;;4929242;29;19923;-68
2022/10/09 10:04:27;;;;;;;;;;;14.00;99.90;;;;;;4929362;29;19958;-69
2022/10/09 10:06:54;;;;;;;;;;;14.00;99.90;;;;;;4929471;29;19915;-69
2022/10/09 10:09:21;;;;;;;;;;;14.00;99.90;;;;;;4929418;29;20001;-67
2022/10/09 10:11:51;;;;;;;;;;;14.00;99.90;;;;;;4929513;29;19921;-68
2022/10/09 10:14:18;;;;;;;;;;;13.90;99.90;;;;;;4928547;29;19930;-67
2022/10/09 10:16:48;;;;;;;;;;;13.90;99.90;;;;;;4929194;29;19919;-67
2022/10/09 10:19:25;;;;;;;;;;;13.80;99.90;;;;;;4929020;29;19919;-68
2022/10/09 10:21:56;;;;;;;;;;;13.80;99.90;;;;;;4929756;29;19914;-68
2022/10/09 10:24:30;;;;;;;;;;;13.80;99.90;;;;;;4929532;29;19915;-68
2022/10/09 10:27:16;;;;;;;;;;;13.80;99.90;;;;;;4929508;29;19915;-68
2022/10/09 10:29:44;;;;;;;;;;;13.70;99.90;;;;;;4931150;29;19919;-72
2022/10/09 10:32:17;;;;;;;;;;;13.80;99.90;;;;;;4935178;29;19921;-70
2022/10/09 10:34:57;;;;;;;;;;;13.80;99.90;;;;;;4929960;29;20418;-66
2022/10/09 10:37:42;;;;;;;;;;;13.70;99.90;;;;;;4929306;29;19982;-69
2022/10/09 10:40:29;;;;;;;;;;;13.80;99.90;;;;;;4929194;29;20033;-68
2022/10/09 10:43:07;;;;;;;;;;;13.70;99.90;;;;;;4924436;29;19919;-71
2022/10/09 10:45:33;;;;;;;;;;;13.70;99.90;;;;;;4929269;29;19914;-69
2022/10/09 10:48:01;;;;;;;;;;;13.70;99.90;;;;;;4929048;29;19922;-66
2022/10/09 10:50:35;;;;;;;;;;;13.70;99.90;;;;;;4928406;29;19970;-67
2022/10/09 10:53:10;;;;;;;;;;;13.70;99.90;;;;;;4928265;29;19919;-67
2022/10/09 10:55:43;;;;;;;;;;;13.70;99.90;;;;;;4928582;29;19953;-66
2022/10/09 10:58:28;;;;;;;;;;;13.70;99.90;;;;;;4928588;29;19994;-66
2022/10/09 11:00:58;;;;;;;;;;;13.80;99.90;;;;;;4928642;29;20054;-67
2022/10/09 11:03:50;;;;;;;;;;;13.80;99.90;;;;;;4927779;29;19926;-66
2022/10/09 11:06:28;;;;;;;;;;;13.80;99.90;;;;;;4912211;29;19929;-70
2022/10/09 11:08:55;;;;;;;;;;;13.80;99.90;;;;;;4928420;29;19919;-70
2022/10/09 11:11:27;;;;;;;;;;;13.80;99.90;;;;;;4927952;29;19921;-71
2022/10/09 11:14:09;;;;;;;;;;;13.80;99.90;;;;;;4926109;29;19929;-73
2022/10/09 11:16:39;;;;;;;;;;;13.80;99.90;;;;;;4928316;29;19915;-72
2022/10/09 11:19:14;;;;;;;;;;;13.80;99.90;;;;;;4928128;29;20033;-72
2022/10/09 11:21:50;;;;;;;;;;;13.80;99.90;;;;;;4927873;29;20652;-71
2022/10/09 11:24:27;;;;;;;;;;;13.70;99.90;;;;;;4927745;29;19926;-72
2022/10/09 11:27:09;;;;;;;;;;;13.70;99.90;;;;;;4927396;29;19915;-73
2022/10/09 11:29:47;;;;;;;;;;;13.60;99.90;;;;;;4926354;29;19998;-73
2022/10/09 11:32:33;;;;;;;;;;;13.60;99.90;;;;;;4927900;29;20319;-73
2022/10/09 11:35:12;;;;;;;;;;;13.60;99.90;;;;;;4927733;29;20438;-70
2022/10/09 11:37:40;;;;;;;;;;;13.50;99.90;;;;;;4928178;29;19922;-68
2022/10/09 11:40:13;;;;;;;;;;;13.50;99.90;;;;;;4927865;29;19921;-71
2022/10/09 11:42:41;;;;;;;;;;;13.50;99.90;;;;;;4927233;29;19969;-74
2022/10/09 11:45:28;;;;;;;;;;;13.50;99.90;;;;;;4927876;29;19937;-70
2022/10/09 11:47:54;;;;;;;;;;;13.60;99.90;;;;;;4927894;29;19926;-73
2022/10/09 11:50:47;;;;;;;;;;;13.60;99.90;;;;;;4928056;29;19994;-74
2022/10/09 11:53:18;;;;;;;;;;;13.60;99.90;;;;;;4927315;29;19919;-72
2022/10/09 11:55:47;;;;;;;;;;;13.70;99.90;;;;;;4928052;29;19923;-70
2022/10/09 11:58:19;;;;;;;;;;;13.70;99.90;;;;;;4927509;29;19915;-68
2022/10/09 12:00:49;;;;;;;;;;;13.70;99.90;;;;;;4927301;29;19992;-71
2022/10/09 12:03:21;;;;;;;;;;;13.70;99.90;;;;;;4926750;29;19949;-71
2022/10/09 12:05:48;;;;;;;;;;;13.70;99.90;;;;;;4929328;29;19915;-73
2022/10/09 12:08:25;;;;;;;;;;;13.70;99.90;;;;;;4938576;29;19919;-73
2022/10/09 12:10:57;;;;;;;;;;;13.70;99.90;;;;;;4931455;29;19915;-72
2022/10/09 12:13:29;;;;;;;;;;;13.70;99.90;;;;;;4928895;29;19923;-70
2022/10/09 12:15:58;;;;;;;;;;;13.60;99.90;;;;;;4929387;29;20055;-70
2022/10/09 12:18:29;;;;;;;;;;;13.60;99.90;;;;;;4929284;29;19915;-72
2022/10/09 12:20:57;;;;;;;;;;;13.60;99.90;;;;;;4933186;29;19921;-73
2022/10/09 12:23:25;;;;;;;;;;;13.60;99.90;;;;;;4935829;29;19997;-68
2022/10/09 12:25:53;;;;;;;;;;;13.50;99.90;;;;;;4935716;29;19910;-70
2022/10/09 12:28:37;;;;;;;;;;;13.50;99.90;;;;;;4935409;29;19918;-68
2022/10/09 12:31:07;;;;;;;;;;;13.50;99.90;;;;;;4935282;29;19911;-69
2022/10/09 12:33:39;;;;;;;;;;;13.50;99.90;;;;;;4935570;29;20022;-69
2022/10/09 12:36:14;;;;;;;;;;;13.40;99.90;;;;;;4935849;29;20053;-69
2022/10/09 12:38:41;;;;;;;;;;;13.40;99.90;;;;;;4936052;29;20039;-68
2022/10/09 12:41:22;;;;;;;;;;;13.40;99.90;;;;;;4937077;29;19918;-69
2022/10/09 12:43:53;;;;;;;;;;;13.40;99.90;;;;;;4935150;29;20027;-69
2022/10/09 12:46:29;;;;;;;;;;;13.40;99.90;;;;;;4935506;29;19911;-68
2022/10/09 12:48:56;;;;;;;;;;;13.40;99.90;;;;;;4935130;29;19910;-70
2022/10/09 12:51:25;;;;;;;;;;;13.40;99.90;;;;;;4934558;29;19915;-71
2022/10/09 12:53:52;;;;;;;;;;;13.30;99.90;;;;;;4934441;29;20387;-71
2022/10/09 12:56:30;;;;;;;;;;;13.30;99.90;;;;;;4934827;29;19915;-68
2022/10/09 12:58:59;;;;;;;;;;;13.30;99.90;;;;;;4934833;29;20002;-69
2022/10/09 13:01:26;;;;;;;;;;;13.10;99.90;;;;;;4934409;29;19915;-69
2022/10/09 13:03:57;;;;;;;;;;;13.10;99.90;;;;;;4934477;29;19958;-71
2022/10/09 13:06:25;;;;;;;;;;;13.00;99.90;;;;;;4934890;29;20363;-68
2022/10/09 13:08:54;;;;;;;;;;;12.90;99.90;;;;;;4934827;29;19918;-71
2022/10/09 13:11:24;;;;;;;;;;;12.80;99.90;;;;;;4934522;29;19911;-71
2022/10/09 13:13:51;;;;;;;;;;;12.80;99.90;;;;;;4934360;29;20077;-72
2022/10/09 13:16:18;;;;;;;;;;;12.80;99.90;;;;;;4933343;29;19922;-70
2022/10/09 13:19:05;;;;;;;;;;;12.80;99.90;;;;;;4934731;29;19934;-69
2022/10/09 13:21:32;;;;;;;;;;;12.80;99.90;;;;;;4935722;29;20009;-71
2022/10/09 13:24:10;;;;;;;;;;;12.90;99.90;;;;;;4933258;29;19915;-70
2022/10/09 13:26:37;;;;;;;;;;;12.90;99.90;;;;;;4934379;29;19915;-67
2022/10/09 13:29:05;;;;;;;;;;;12.90;99.90;;;;;;4934308;29;19917;-70
2022/10/09 13:31:32;;;;;;;;;;;12.90;99.90;;;;;;4934454;29;20330;-68
2022/10/09 13:34:17;;;;;;;;;;;12.90;99.90;;;;;;4934192;29;19922;-70
2022/10/09 13:36:44;;;;;;;;;;;12.90;99.90;;;;;;4934656;29;19910;-68
2022/10/09 13:39:14;;;;;;;;;;;12.90;99.90;;;;;;4934251;29;19958;-68
2022/10/09 13:41:41;;;;;;;;;;;12.90;99.90;;;;;;4934545;29;20267;-68
2022/10/09 13:44:12;;;;;;;;;;;12.90;99.90;;;;;;4942426;29;19919;-67
2022/10/09 13:46:40;;;;;;;;;;;12.80;99.90;;;;;;4939640;29;19911;-68
2022/10/09 13:49:07;;;;;;;;;;;12.80;99.90;;;;;;4949662;28;20374;-70
2022/10/09 13:51:35;;;;;;;;;;;12.80;99.90;;;;;;4937904;29;19966;-68
2022/10/09 13:54:05;;;;;;;;;;;12.80;99.90;;;;;;4937453;29;19918;-69
2022/10/09 13:56:31;;;;;;;;;;;12.80;99.90;;;;;;4937681;29;20029;-70
2022/10/09 13:58:58;;;;;;;;;;;12.80;99.90;;;;;;4937793;29;19915;-72
2022/10/09 14:01:25;;;;;;;;;;;12.80;99.90;;;;;;4937249;29;20285;-68
2022/10/09 14:03:51;;;;;;;;;;;12.80;99.90;;;;;;4937351;29;19919;-68
2022/10/09 14:06:18;;;;;;;;;;;12.80;99.90;;;;;;4937596;29;19978;-68
2022/10/09 14:08:45;;;;;;;;;;;12.80;99.90;;;;;;4937536;29;19911;-69
2022/10/09 14:11:11;;;;;;;;;;;12.80;99.90;;;;;;4937419;29;19911;-69
2022/10/09 14:13:38;;;;;;;;;;;12.80;99.90;;;;;;4937190;29;19922;-67
2022/10/09 14:16:09;;;;;;;;;;;12.80;99.90;;;;;;4937379;29;19981;-72
2022/10/09 14:18:36;;;;;;;;;;;12.90;99.90;;;;;;4937350;29;20318;-68
2022/10/09 14:21:12;;;;;;;;;;;12.90;99.90;;;;;;4937122;29;19919;-69
2022/10/09 14:23:39;;;;;;;;;;;12.90;99.90;;;;;;4936911;29;20367;-69
2022/10/09 14:26:06;;;;;;;;;;;12.90;99.90;;;;;;4937233;29;19917;-69
2022/10/09 14:28:33;;;;;;;;;;;12.90;99.90;;;;;;4937208;29;19922;-68
2022/10/09 14:31:04;;;;;;;;;;;12.90;99.90;;;;;;4937162;29;20363;-69
2022/10/09 14:33:30;;;;;;;;;;;12.90;99.90;;;;;;4936623;29;20041;-71